Airfield :
LOGIN :

Register | Disclaimer

   EN    FR    IT 

 










Legend :    VFR   Marginal VFR   IFR   Intensive IFR   Very Intensive IFR
Visi :
Ceiling :
>= 8 km
>= 3000ft
5 to 8 km
1000 to 3000 ft
1500m to 5 km
500 to 1000 ft
800 to 1500m
200 to 500 ft
< 800m
< 200 ft
Symbols :   Thunderstorms  Fog  Heavy snow  Heavy precipitations  Wind > 20 kt
SIGMETs :     Misc.  Thunderstorms  Icing  Turbulence  Mountain Waves  Volcanic Ashes






- Airport Elevation : 1260 ft
- IATA code : LDE


LFBT - Tarbes / Ossun

CURRENT METAR :
  • 090800Z AUTO VRB02KT 9999 ///CB 25/18 Q1018 NOSIG

EXPIRED METARs :
  • 090730Z AUTO VRB02KT 9999 ///TCU 24/18 Q1018 NOSIG
  • 090700Z AUTO VRB02KT CAVOK 22/18 Q1018 TEMPO BKN100TCU
  • 090630Z AUTO 13003KT CAVOK 21/18 Q1018 TEMPO BKN100TCU
  • 090600Z AUTO 00000KT CAVOK 20/17 Q1018 TEMPO BKN100TCU
  • 090530Z AUTO 16004KT CAVOK 19/17 Q1018 TEMPO VRB15KT BKN080TCU
  • 090500Z AUTO VRB01KT CAVOK 20/17 Q1018 TEMPO VRB15KT BKN080TCU

TAF TAF LFBT
Valid from the 09 at 06:00 until the 10 at 06:00 UTC


090500Z 0906/1006 VRB04KT CAVOK
TEMPO 0906/0924 BKN100TCU
TEMPO 0912/0918 07006KT
PROB30
TEMPO 0918/0920 20020G30KT -TSRA BKN080CB



MET'MAP, your aeronautical weather chart ! - Copyright ORBIFLY December 2007 - Disclaimer

ORBIFLY MET'MAP TEAM :

Programming & Development : Alexandra Zaïnal
Concept & original design : Baudouin d'Aumeries
Assistance for programming : Marc-Olivier Méhu
Technical & hardware support : Manuel Goepfert

Contact : metmap@orbifly.com




SOURCES & CREDITS :

   NOAA